KLGC

Lagrange-Callaway Airport

Lagrange, Georgia, USA
METAR KLGC 141635Z AUTO 08007KT 1 3/4SM BR OVC005 12/12 A2997 RMK AO2 T01230120
Observed Flight Rules
Dec-14 @ 16:35 UTC (29 minutes ago) Instrument Flight Rules
Wind Visibility Clouds Conditions
80° at 7 knots 1 3/4 miles
  • Overcast at 500' AGL
  • Mist
Temperatures Readings
Current 12°C / 54°F
Dewpoint 12°C / 54°F
Humidity 100%
Altimeter 29.97" Hg
Pressure 1015 hPa
Elevation 211
METAR KLGC 141635Z AUTO 08007KT 1 3/4SM BR OVC005 12/12 A2997 RMK AO2 T01230120
Observed Flight Rules
Dec-14 @ 16:35 UTC
(29 minutes ago)
IFR
Wind Visibility
80° at 7 knots 1 3/4 miles
Clouds
  • Overcast at 500' AGL
Conditions
  • Mist
Temperature Dewpoint
12°C / 54°F 12°C / 54°F
Humidity Altimeter Pressure
100% 29.97" Hg 1015 hPa